Terminal Aerodrome Forecast
Issued by NWS Wichita, KS

Home | Current Version | Previous Version | Graphics & Text | Print | Product List | Glossary On
Versions: 1 2 3 4 5 6 7 8 9 10 11 12 13 14 15 16 17 18 19 20 21 22 23 24
019
FTUS43 KICT 271122
TAFICT
TAF
KICT 271122Z 2712/2812 20011KT P6SM SCT014 BKN022
      TEMPO 2712/2713 OVC014
     FM271300 30014G20KT P6SM VCSH BKN020
     FM271800 28015G22KT P6SM BKN035
     FM280000 30010KT P6SM SCT100=

USA.gov is the U.S. government's official web portal to all federal, state and local government web resources and services.